Finley, Washington
Current Conditions -  °F | °C
As of 12:53 AM on Saturday 29 Nov 2014 (Local Time) from KPSC Reporting Station
Few Clouds Few Clouds  
Wind Chill: 42°   Ceiling: Unl
Heat Index: 47°   Visibility: 10mi
Dew Point: 34°   Wind: 12mph
Humidity: 61%   Direction: 280°W
Pressure: 29.45"   Gusts: NA
Location:  46.2117°N, 119.173°W
Report Text: KPSC 290853Z AUTO 28010KT 10SM FEW090 08/01 A2945 RMK AO2 SLP971 T00830011 53029 $
Loading
Personal Weather Stations






























Interactive Weather Map New forecast layout! Learn more

10-Day Weather Forecast

Advertisements
Track Severe Weather on mobile